Time;durP1;ratioP1;P1;durP2;ratioP2;P2;SDS_P1;SDS_P2;PMS_P1;PMS_P2;Temp;Humidity;BMP_temperature;BMP_pressure;BME280_temperature;BME280_humidity;BME280_pressure;Samples;Min_cycle;Max_cycle;Signal;HPM_P1;HPM_P2
2022/01/13 00:00:29;;;;;;;499.35;50.83;;;;;;;;;;5092396;28;20082;-73
2022/01/13 00:02:55;;;;;;;317.30;42.72;;;;;;;;;;5091845;28;20028;-72
2022/01/13 00:05:27;;;;;;;465.85;48.58;;;;;;;;;;5092546;28;20424;-72
2022/01/13 00:07:55;;;;;;;358.13;44.20;;;;;;;;;;5092520;28;20059;-72
2022/01/13 00:10:22;;;;;;;414.48;45.50;;;;;;;;;;5092483;28;20110;-72
2022/01/13 00:12:55;;;;;;;442.35;46.85;;;;;;;;;;5092417;28;20036;-72
2022/01/13 00:15:37;;;;;;;516.05;48.95;;;;;;;;;;5092133;28;20020;-72
2022/01/13 00:18:11;;;;;;;487.90;48.65;;;;;;;;;;5092450;28;20107;-72
2022/01/13 00:26:17;;;;;;;344.35;39.13;;;;;;;;;;5009985;28;20424;-72
2022/01/13 00:28:45;;;;;;;455.17;45.40;;;;;;;;;;5010011;28;20172;-72
2022/01/13 00:31:11;;;;;;;506.23;45.83;;;;;;;;;;5010042;28;20596;-72
2022/01/13 00:33:43;;;;;;;476.77;46.03;;;;;;;;;;5009730;28;20072;-72
2022/01/13 00:36:10;;;;;;;507.30;47.70;;;;;;;;;;5010075;28;20125;-72
2022/01/13 00:38:36;;;;;;;466.08;45.38;;;;;;;;;;5009792;28;20032;-72
2022/01/13 00:41:02;;;;;;;506.55;47.65;;;;;;;;;;5009850;28;20034;-72
2022/01/13 00:43:28;;;;;;;462.52;44.90;;;;;;;;;;5009676;28;20037;-72
2022/01/13 00:45:54;;;;;;;468.52;44.80;;;;;;;;;;5009832;28;20076;-72
2022/01/13 00:48:20;;;;;;;496.83;46.60;;;;;;;;;;5009508;28;20042;-72
2022/01/13 00:50:46;;;;;;;448.45;42.75;;;;;;;;;;5025550;28;20041;-72
2022/01/13 00:53:12;;;;;;;447.70;43.92;;;;;;;;;;5029227;28;20128;-72
2022/01/13 00:55:49;;;;;;;340.38;42.00;;;;;;;;;;5029375;28;20065;-72
2022/01/13 00:58:16;;;;;;;467.45;44.80;;;;;;;;;;5029422;28;20104;-72
2022/01/13 01:00:42;;;;;;;535.05;47.95;;;;;;;;;;5054214;28;20486;-72
2022/01/13 01:03:09;;;;;;;579.30;49.83;;;;;;;;;;5053202;28;20039;-72
2022/01/13 01:05:36;;;;;;;436.05;42.90;;;;;;;;;;5071477;28;20115;-72
2022/01/13 01:08:03;;;;;;;583.85;49.70;;;;;;;;;;5071484;28;20021;-72
2022/01/13 01:10:29;;;;;;;497.92;46.83;;;;;;;;;;5071439;28;20024;-72
2022/01/13 01:12:55;;;;;;;498.40;44.58;;;;;;;;;;5071350;28;20108;-72
2022/01/13 01:15:22;;;;;;;408.45;42.63;;;;;;;;;;5075064;28;20116;-72
2022/01/13 01:17:54;;;;;;;555.30;47.75;;;;;;;;;;5075231;28;20413;-72
2022/01/13 01:20:20;;;;;;;;;;;;;;;;;;5057919;28;20429;-72
2022/01/13 01:27:56;;;;;;;493.85;43.92;;;;;;;;;;5075205;28;20490;-72
2022/01/13 01:30:33;;;;;;;460.85;47.22;;;;;;;;;;5075243;28;20098;-72
2022/01/13 01:33:00;;;;;;;472.67;43.33;;;;;;;;;;5075236;28;20044;-72
2022/01/13 01:35:27;;;;;;;563.20;47.33;;;;;;;;;;5075005;28;20465;-72
2022/01/13 01:37:53;;;;;;;507.58;47.55;;;;;;;;;;5075063;28;20768;-72
2022/01/13 01:40:20;;;;;;;477.17;44.38;;;;;;;;;;5056727;28;20047;-72
2022/01/13 01:42:47;;;;;;;488.40;45.90;;;;;;;;;;5074909;28;20327;-71
2022/01/13 01:45:14;;;;;;;522.35;47.03;;;;;;;;;;5074885;28;20032;-72
2022/01/13 01:47:41;;;;;;;551.30;51.15;;;;;;;;;;5074672;28;20466;-71
2022/01/13 01:50:18;;;;;;;489.35;46.72;;;;;;;;;;5074535;28;20020;-72
2022/01/13 01:52:46;;;;;;;467.40;45.78;;;;;;;;;;5074752;28;20418;-71
2022/01/13 01:55:13;;;;;;;426.98;42.72;;;;;;;;;;5088096;28;20451;-72
2022/01/13 01:57:39;;;;;;;585.30;55.20;;;;;;;;;;5095027;28;20407;-72
2022/01/13 02:00:07;;;;;;;502.88;47.60;;;;;;;;;;5094940;28;20462;-71
2022/01/13 02:02:33;;;;;;;578.40;50.80;;;;;;;;;;5076513;28;20062;-72
2022/01/13 02:05:00;;;;;;;406.20;40.75;;;;;;;;;;5094945;28;20335;-71
2022/01/13 02:07:26;;;;;;;538.63;47.70;;;;;;;;;;5094602;28;20019;-72
2022/01/13 02:09:53;;;;;;;610.05;51.22;;;;;;;;;;5094725;28;20028;-71
2022/01/13 02:12:44;;;;;;;595.70;51.20;;;;;;;;;;5094722;28;20062;-72
2022/01/13 02:17:40;;;;;;;436.98;43.50;;;;;;;;;;5094608;28;20074;-72
2022/01/13 02:20:06;;;;;;;337.10;39.10;;;;;;;;;;5094666;28;20024;-72
2022/01/13 02:22:33;;;;;;;420.92;40.83;;;;;;;;;;5094473;28;20028;-71
2022/01/13 02:24:59;;;;;;;410.00;38.28;;;;;;;;;;5075785;28;20028;-71
2022/01/13 02:27:25;;;;;;;242.13;33.65;;;;;;;;;;5094482;28;20393;-72
2022/01/13 02:29:51;;;;;;;312.02;33.97;;;;;;;;;;5094405;28;20436;-71
2022/01/13 02:32:18;;;;;;;342.65;35.22;;;;;;;;;;5094315;28;20374;-71
2022/01/13 02:34:44;;;;;;;408.90;38.65;;;;;;;;;;5094167;28;20027;-71
2022/01/13 02:37:10;;;;;;;344.75;34.85;;;;;;;;;;5094198;28;20025;-72
2022/01/13 02:39:37;;;;;;;383.92;35.88;;;;;;;;;;5094065;28;20032;-72
2022/01/13 02:42:04;;;;;;;338.02;35.17;;;;;;;;;;5094343;28;20024;-71
2022/01/13 02:44:31;;;;;;;423.10;37.40;;;;;;;;;;5094021;28;20016;-71
2022/01/13 02:47:21;;;;;;;322.73;33.17;;;;;;;;;;5093885;28;20048;-72
2022/01/13 02:49:47;;;;;;;233.10;29.73;;;;;;;;;;5093950;28;20032;-72
2022/01/13 02:52:13;;;;;;;392.60;36.25;;;;;;;;;;5093915;28;20042;-72
2022/01/13 02:54:39;;;;;;;279.90;33.45;;;;;;;;;;5093336;28;20044;-72
2022/01/13 02:57:05;;;;;;;363.67;35.70;;;;;;;;;;5093864;28;20039;-72
2022/01/13 02:59:31;;;;;;;370.67;38.08;;;;;;;;;;5093664;28;20036;-72
2022/01/13 03:01:57;;;;;;;411.10;38.13;;;;;;;;;;5093785;28;20096;-72
2022/01/13 03:04:24;;;;;;;201.50;31.42;;;;;;;;;;5093711;28;20368;-72
2022/01/13 03:06:50;;;;;;;280.75;34.40;;;;;;;;;;5093651;28;20016;-71
2022/01/13 03:09:16;;;;;;;460.23;40.67;;;;;;;;;;5093481;28;20028;-72
2022/01/13 03:11:44;;;;;;;354.60;35.03;;;;;;;;;;5093380;28;20016;-72
2022/01/13 03:14:11;;;;;;;446.83;40.55;;;;;;;;;;5093368;28;20024;-72
2022/01/13 03:16:41;;;;;;;514.50;42.60;;;;;;;;;;5093261;28;20466;-72
2022/01/13 03:19:07;;;;;;;397.00;36.75;;;;;;;;;;5093299;28;20059;-72
2022/01/13 03:21:33;;;;;;;393.15;37.25;;;;;;;;;;5093399;28;20028;-72
2022/01/13 03:24:00;;;;;;;377.48;35.60;;;;;;;;;;5093201;28;20024;-71
2022/01/13 03:26:26;;;;;;;403.92;38.30;;;;;;;;;;5093310;28;20020;-72
2022/01/13 03:29:05;;;;;;;415.27;37.30;;;;;;;;;;5093187;28;20024;-72
2022/01/13 03:31:31;;;;;;;412.73;37.47;;;;;;;;;;5093174;28;20154;-72
2022/01/13 03:33:57;;;;;;;422.65;39.60;;;;;;;;;;5092960;28;20103;-72
2022/01/13 03:36:23;;;;;;;436.15;39.33;;;;;;;;;;5092446;28;20028;-72
2022/01/13 03:38:49;;;;;;;371.23;35.88;;;;;;;;;;5092321;28;20039;-72
2022/01/13 03:41:15;;;;;;;550.80;46.55;;;;;;;;;;5092988;28;20032;-72
2022/01/13 03:43:42;;;;;;;328.65;35.17;;;;;;;;;;5092932;28;20028;-72
2022/01/13 03:46:09;;;;;;;449.52;39.53;;;;;;;;;;5092976;28;20538;-72
2022/01/13 03:48:35;;;;;;;473.35;39.63;;;;;;;;;;5092576;28;20478;-71
2022/01/13 03:51:01;;;;;;;411.30;38.55;;;;;;;;;;5092779;28;20035;-72
2022/01/13 03:53:27;;;;;;;482.42;38.45;;;;;;;;;;5092589;28;20702;-72
2022/01/13 03:56:12;;;;;;;343.17;34.67;;;;;;;;;;5092581;28;20040;-72
2022/01/13 03:58:47;;;;;;;406.75;37.30;;;;;;;;;;5092713;28;20024;-72
2022/01/13 04:01:22;;;;;;;536.72;41.40;;;;;;;;;;5092668;28;20039;-72
2022/01/13 04:03:48;;;;;;;432.95;37.60;;;;;;;;;;5092421;28;20016;-71
2022/01/13 04:06:14;;;;;;;473.05;39.78;;;;;;;;;;5092538;28;20455;-71
2022/01/13 04:08:40;;;;;;;392.95;36.33;;;;;;;;;;5092430;28;20081;-72
2022/01/13 04:11:06;;;;;;;440.05;36.00;;;;;;;;;;5092400;28;20024;-71
2022/01/13 04:14:27;;;;;;;328.45;31.85;;;;;;;;;;5092255;28;20028;-72
2022/01/13 04:16:21;;;;;;;473.25;38.03;;;;;;;;;;5077534;28;20040;-72
2022/01/13 04:18:48;;;;;;;398.13;36.53;;;;;;;;;;5092087;28;20035;-71
2022/01/13 04:21:15;;;;;;;379.88;33.35;;;;;;;;;;5092754;28;20324;-72
2022/01/13 04:23:41;;;;;;;354.80;32.90;;;;;;;;;;5092475;28;20123;-72
2022/01/13 04:26:07;;;;;;;364.08;35.50;;;;;;;;;;5092222;28;20032;-72
2022/01/13 04:28:34;;;;;;;401.40;35.38;;;;;;;;;;5092104;28;20358;-72
2022/01/13 04:31:03;;;;;;;408.90;35.15;;;;;;;;;;5105815;28;20035;-71
2022/01/13 04:33:30;;;;;;;316.50;30.85;;;;;;;;;;5112027;28;20743;-72
2022/01/13 04:35:57;;;;;;;405.25;34.67;;;;;;;;;;5112474;28;20019;-72
2022/01/13 04:38:23;;;;;;;370.60;33.13;;;;;;;;;;5112295;28;20026;-72
2022/01/13 04:40:55;;;;;;;353.08;32.53;;;;;;;;;;5112335;28;20073;-72
2022/01/13 04:43:21;;;;;;;469.05;37.92;;;;;;;;;;5112213;28;20158;-71
2022/01/13 04:45:48;;;;;;;396.02;34.95;;;;;;;;;;5112287;28;20023;-72
2022/01/13 04:48:14;;;;;;;299.13;32.00;;;;;;;;;;5100115;28;20035;-72
2022/01/13 04:50:40;;;;;;;451.27;37.20;;;;;;;;;;5091897;28;20025;-72
2022/01/13 04:53:07;;;;;;;319.25;32.25;;;;;;;;;;5091796;28;20523;-72
2022/01/13 04:55:35;;;;;;;388.40;35.65;;;;;;;;;;5091508;28;20047;-72
2022/01/13 04:58:01;;;;;;;379.73;35.45;;;;;;;;;;5091807;28;20389;-72
2022/01/13 05:00:28;;;;;;;411.65;35.42;;;;;;;;;;5091748;28;20463;-72
2022/01/13 05:02:54;;;;;;;345.45;32.28;;;;;;;;;;5091690;28;20034;-71
2022/01/13 05:05:21;;;;;;;389.35;34.78;;;;;;;;;;5091760;28;20036;-72
2022/01/13 05:07:47;;;;;;;259.23;31.50;;;;;;;;;;5091709;28;20027;-72
2022/01/13 05:10:13;;;;;;;473.85;38.75;;;;;;;;;;5091573;28;20024;-72
2022/01/13 05:12:45;;;;;;;462.27;40.25;;;;;;;;;;5091684;28;20474;-72
2022/01/13 05:15:16;;;;;;;387.27;34.37;;;;;;;;;;5091468;28;20446;-72
2022/01/13 05:18:03;;;;;;;408.40;35.93;;;;;;;;;;5091718;28;20492;-72
2022/01/13 05:20:39;;;;;;;444.45;36.67;;;;;;;;;;5083489;28;20281;-72
2022/01/13 05:23:06;;;;;;;393.40;36.00;;;;;;;;;;5091549;28;20036;-72
2022/01/13 05:25:32;;;;;;;425.90;36.75;;;;;;;;;;5073338;28;20087;-72
2022/01/13 05:27:58;;;;;;;477.33;39.55;;;;;;;;;;5091476;28;20039;-72
2022/01/13 05:30:24;;;;;;;360.05;36.22;;;;;;;;;;5091588;28;20028;-72
2022/01/13 05:32:50;;;;;;;505.83;44.00;;;;;;;;;;5091556;28;20114;-72
2022/01/13 05:35:16;;;;;;;453.80;40.05;;;;;;;;;;5091455;28;20099;-72
2022/01/13 05:37:43;;;;;;;336.33;34.78;;;;;;;;;;5091450;28;20429;-72
2022/01/13 05:40:10;;;;;;;425.02;40.60;;;;;;;;;;5103991;28;20453;-72
2022/01/13 05:42:36;;;;;;;479.15;40.28;;;;;;;;;;5111816;28;20031;-72
2022/01/13 05:45:03;;;;;;;392.08;35.53;;;;;;;;;;5111697;28;20031;-72
2022/01/13 05:47:29;;;;;;;416.90;39.13;;;;;;;;;;5105881;28;20732;-72
2022/01/13 05:49:55;;;;;;;345.25;31.75;;;;;;;;;;5091242;28;20440;-72
2022/01/13 05:52:21;;;;;;;462.80;40.67;;;;;;;;;;5091214;28;20028;-72
2022/01/13 05:54:47;;;;;;;331.17;37.25;;;;;;;;;;5090881;28;20098;-72
2022/01/13 05:57:13;;;;;;;496.15;46.50;;;;;;;;;;5091271;28;20017;-72
2022/01/13 05:59:39;;;;;;;369.98;40.13;;;;;;;;;;5092099;28;20020;-72
2022/01/13 06:02:05;;;;;;;390.27;40.05;;;;;;;;;;5094933;28;20024;-72
2022/01/13 06:04:32;;;;;;;416.05;42.08;;;;;;;;;;5094831;28;20035;-72
2022/01/13 06:06:58;;;;;;;438.40;43.25;;;;;;;;;;5076538;28;20028;-72
2022/01/13 06:09:24;;;;;;;340.95;38.05;;;;;;;;;;5094725;28;20024;-72
2022/01/13 06:12:02;;;;;;;315.00;36.47;;;;;;;;;;5094798;28;20471;-71
2022/01/13 06:14:28;;;;;;;358.92;37.50;;;;;;;;;;5094576;28;20335;-72
2022/01/13 06:16:54;;;;;;;299.40;33.53;;;;;;;;;;5090372;28;20396;-72
2022/01/13 06:19:20;;;;;;;358.02;34.78;;;;;;;;;;5094482;28;20485;-72
2022/01/13 06:21:47;;;;;;;276.85;32.47;;;;;;;;;;5094547;28;20467;-72
2022/01/13 06:24:13;;;;;;;336.25;34.22;;;;;;;;;;5094464;28;20081;-71
2022/01/13 06:26:39;;;;;;;276.25;31.50;;;;;;;;;;5094536;28;20032;-72
2022/01/13 06:29:05;;;;;;;330.08;33.55;;;;;;;;;;5094418;28;20036;-71
2022/01/13 06:31:31;;;;;;;284.88;32.65;;;;;;;;;;5094451;28;20121;-72
2022/01/13 06:33:57;;;;;;;389.63;36.85;;;;;;;;;;5094147;28;20074;-71
2022/01/13 06:36:23;;;;;;;270.17;29.35;;;;;;;;;;5094309;28;20447;-72
2022/01/13 06:38:50;;;;;;;239.40;29.88;;;;;;;;;;5094094;28;20020;-72
2022/01/13 06:41:17;;;;;;;287.88;30.27;;;;;;;;;;5094099;28;20489;-72
2022/01/13 06:43:44;;;;;;;268.58;30.52;;;;;;;;;;5094027;28;20024;-72
2022/01/13 06:46:11;;;;;;;291.63;30.42;;;;;;;;;;5075971;28;20059;-72
2022/01/13 06:48:38;;;;;;;345.05;32.03;;;;;;;;;;5093695;28;20551;-72
2022/01/13 06:51:04;;;;;;;264.05;29.45;;;;;;;;;;5094068;28;20116;-72
2022/01/13 06:53:30;;;;;;;319.00;31.88;;;;;;;;;;5093782;28;20028;-72
2022/01/13 06:55:56;;;;;;;272.85;30.27;;;;;;;;;;5093644;28;20048;-72
2022/01/13 06:58:22;;;;;;;274.73;31.00;;;;;;;;;;5093688;28;20027;-72
2022/01/13 07:00:48;;;;;;;307.40;33.28;;;;;;;;;;5093806;28;20020;-72
2022/01/13 07:03:14;;;;;;;259.20;32.35;;;;;;;;;;5093604;28;20020;-72
2022/01/13 07:05:40;;;;;;;288.17;30.88;;;;;;;;;;5093702;28;20103;-72
2022/01/13 07:08:10;;;;;;;364.88;36.30;;;;;;;;;;5076822;28;20532;-72
2022/01/13 07:10:36;;;;;;;332.92;34.65;;;;;;;;;;5072749;28;20021;-71
2022/01/13 07:13:03;;;;;;;253.23;29.73;;;;;;;;;;5083147;28;20028;-72
2022/01/13 07:15:31;;;;;;;328.52;33.10;;;;;;;;;;5081692;28;20036;-72
2022/01/13 07:17:57;;;;;;;278.58;33.35;;;;;;;;;;5083023;28;20024;-72
2022/01/13 07:20:24;;;;;;;342.33;33.58;;;;;;;;;;5083792;28;20025;-72
2022/01/13 07:22:51;;;;;;;388.75;37.00;;;;;;;;;;5081739;28;20374;-72
2022/01/13 07:25:17;;;;;;;350.63;35.72;;;;;;;;;;5072846;28;20024;-72
2022/01/13 07:27:43;;;;;;;375.25;37.22;;;;;;;;;;5092920;28;20055;-72
2022/01/13 07:30:10;;;;;;;328.55;34.58;;;;;;;;;;5074433;28;20386;-72
2022/01/13 07:32:36;;;;;;;352.80;34.50;;;;;;;;;;5092670;28;20020;-72
2022/01/13 07:35:02;;;;;;;329.98;36.40;;;;;;;;;;5090477;28;20035;-72
2022/01/13 07:37:28;;;;;;;360.58;38.05;;;;;;;;;;5066327;28;20020;-72
2022/01/13 07:39:54;;;;;;;317.58;36.83;;;;;;;;;;5069990;28;20039;-72
2022/01/13 07:42:23;;;;;;;342.90;35.65;;;;;;;;;;5073050;28;20028;-72
2022/01/13 07:44:49;;;;;;;410.17;38.15;;;;;;;;;;5072938;28;20501;-72
2022/01/13 07:47:15;;;;;;;376.83;36.80;;;;;;;;;;5073315;28;20483;-72
2022/01/13 07:49:41;;;;;;;389.15;37.70;;;;;;;;;;5068543;28;20037;-72
2022/01/13 07:52:07;;;;;;;320.80;35.67;;;;;;;;;;5070918;28;20035;-72
2022/01/13 07:54:33;;;;;;;375.00;37.17;;;;;;;;;;5069532;28;20068;-72
2022/01/13 07:56:59;;;;;;;350.25;35.88;;;;;;;;;;5089509;28;20024;-72
2022/01/13 07:59:28;;;;;;;336.40;32.40;;;;;;;;;;5088891;28;20100;-72
2022/01/13 08:01:57;;;;;;;283.60;32.72;;;;;;;;;;5087142;28;20024;-72
2022/01/13 08:04:24;;;;;;;745.83;56.90;;;;;;;;;;5091765;28;20467;-76
2022/01/13 08:06:50;;;;;;;269.48;31.45;;;;;;;;;;5092629;28;20054;-72
2022/01/13 08:09:16;;;;;;;260.65;32.13;;;;;;;;;;5093691;28;20393;-72
2022/01/13 08:11:42;;;;;;;259.85;30.45;;;;;;;;;;5112210;28;20032;-72
2022/01/13 08:14:08;;;;;;;294.52;33.40;;;;;;;;;;5111904;28;20144;-72
2022/01/13 08:16:36;;;;;;;206.60;29.17;;;;;;;;;;5110655;28;20062;-72
2022/01/13 08:21:48;;;;;;;280.98;31.48;;;;;;;;;;5112185;28;20062;-72
2022/01/13 08:24:14;;;;;;;432.70;39.38;;;;;;;;;;5106822;28;20012;-72
2022/01/13 08:26:40;;;;;;;295.83;32.88;;;;;;;;;;5111846;28;20024;-72
2022/01/13 08:29:06;;;;;;;303.73;32.65;;;;;;;;;;5111741;28;20028;-72
2022/01/13 08:31:32;;;;;;;253.77;30.55;;;;;;;;;;5111210;28;20035;-72
2022/01/13 08:33:58;;;;;;;203.38;29.63;;;;;;;;;;5111029;28;20450;-72
2022/01/13 08:36:24;;;;;;;213.77;31.70;;;;;;;;;;5111924;28;20023;-72
2022/01/13 08:38:50;;;;;;;180.32;27.45;;;;;;;;;;5111904;28;20061;-72
2022/01/13 08:41:16;;;;;;;242.73;31.70;;;;;;;;;;5112133;28;20051;-72
2022/01/13 08:43:42;;;;;;;336.80;35.55;;;;;;;;;;5112262;28;20011;-72
2022/01/13 08:46:08;;;;;;;197.50;29.73;;;;;;;;;;5112386;28;20020;-72
2022/01/13 08:48:35;;;;;;;224.85;30.45;;;;;;;;;;5097182;28;20017;-72
2022/01/13 08:51:02;;;;;;;250.55;31.67;;;;;;;;;;5091975;28;20031;-72
2022/01/13 08:53:28;;;;;;;211.57;31.27;;;;;;;;;;5091704;28;20089;-72
2022/01/13 08:55:55;;;;;;;193.07;31.50;;;;;;;;;;5091541;28;20075;-72
2022/01/13 08:58:22;;;;;;;175.60;28.10;;;;;;;;;;5091835;28;20021;-74
2022/01/13 09:00:49;;;;;;;231.30;32.10;;;;;;;;;;5091833;28;20388;-72
2022/01/13 09:03:15;;;;;;;173.07;28.08;;;;;;;;;;5091760;28;20047;-72
2022/01/13 09:05:42;;;;;;;150.43;27.08;;;;;;;;;;5076210;28;20467;-72
2022/01/13 09:08:12;;;;;;;220.57;31.48;;;;;;;;;;5070878;28;20033;-72
2022/01/13 09:10:40;;;;;;;221.13;31.33;;;;;;;;;;5066717;28;20430;-74
2022/01/13 09:13:06;;;;;;;210.45;30.10;;;;;;;;;;5071531;28;20021;-74
2022/01/13 09:15:36;;;;;;;229.35;32.42;;;;;;;;;;5071152;28;20107;-72
2022/01/13 09:18:17;;;;;;;162.93;26.38;;;;;;;;;;5069957;28;20017;-75
2022/01/13 09:20:44;;;;;;;210.98;30.45;;;;;;;;;;5075769;28;20031;-75
2022/01/13 09:23:10;;;;;;;202.80;29.77;;;;;;;;;;5091369;28;20055;-74
2022/01/13 09:25:36;;;;;;;167.85;29.50;;;;;;;;;;5091366;28;20031;-74
2022/01/13 09:28:07;;;;;;;173.65;28.63;;;;;;;;;;5072782;28;20027;-74
2022/01/13 09:30:33;;;;;;;177.32;29.38;;;;;;;;;;5067751;28;20037;-74
2022/01/13 09:32:59;;;;;;;218.50;31.23;;;;;;;;;;5078140;28;20040;-77
2022/01/13 09:35:25;;;;;;;186.23;30.50;;;;;;;;;;5089761;28;20028;-77
2022/01/13 09:37:51;;;;;;;226.90;29.75;;;;;;;;;;5095542;28;20055;-78
2022/01/13 09:40:18;;;;;;;218.13;30.90;;;;;;;;;;5095255;28;20086;-76
2022/01/13 09:42:44;;;;;;;215.00;30.38;;;;;;;;;;5095399;28;20070;-76
2022/01/13 09:45:11;;;;;;;221.27;30.80;;;;;;;;;;5095384;28;20024;-78
2022/01/13 09:47:38;;;;;;;210.05;29.73;;;;;;;;;;5081569;28;20098;-76
2022/01/13 09:50:09;;;;;;;218.95;29.65;;;;;;;;;;5056833;28;20364;-77
2022/01/13 09:52:35;;;;;;;163.20;27.77;;;;;;;;;;5057039;28;20490;-77
2022/01/13 09:55:01;;;;;;;179.73;28.23;;;;;;;;;;5080222;28;20046;-77
2022/01/13 09:57:27;;;;;;;168.68;27.27;;;;;;;;;;5094827;28;20093;-77
2022/01/13 09:59:57;;;;;;;195.65;29.85;;;;;;;;;;5095081;28;20028;-77
2022/01/13 10:02:23;;;;;;;235.55;31.40;;;;;;;;;;5095019;28;20023;-77
2022/01/13 10:04:53;;;;;;;166.52;28.42;;;;;;;;;;5094704;28;20346;-77
2022/01/13 10:07:38;;;;;;;212.20;30.42;;;;;;;;;;5094061;28;20477;-77
2022/01/13 10:10:08;;;;;;;150.35;26.90;;;;;;;;;;5076151;28;20025;-77
2022/01/13 10:12:39;;;;;;;115.72;24.67;;;;;;;;;;5072152;28;20059;-77
2022/01/13 10:17:46;;;;;;;178.35;28.75;;;;;;;;;;5074359;28;20609;-77
2022/01/13 10:20:13;;;;;;;118.47;24.20;;;;;;;;;;5074535;28;20091;-77
2022/01/13 10:22:39;;;;;;;146.48;27.27;;;;;;;;;;5074638;28;20138;-77
2022/01/13 10:25:08;;;;;;;164.00;29.08;;;;;;;;;;5055889;28;20203;-77
2022/01/13 10:27:35;;;;;;;109.03;24.15;;;;;;;;;;5073917;28;20032;-74
2022/01/13 10:30:03;;;;;;;118.10;24.17;;;;;;;;;;5070768;28;20417;-73
2022/01/13 10:32:33;;;;;;;109.78;23.65;;;;;;;;;;5073296;28;20442;-73
2022/01/13 10:35:01;;;;;;;116.00;24.77;;;;;;;;;;5055050;28;20028;-73
2022/01/13 10:37:34;;;;;;;151.20;29.63;;;;;;;;;;5073289;28;20017;-73
2022/01/13 10:40:11;;;;;;;122.93;24.77;;;;;;;;;;5071898;28;20031;-73
2022/01/13 10:45:09;;;;;;;129.15;26.48;;;;;;;;;;5071293;28;20068;-73
2022/01/13 10:47:36;;;;;;;126.15;27.00;;;;;;;;;;5072908;28;20044;-73
2022/01/13 10:50:05;;;;;;;109.03;25.55;;;;;;;;;;5072904;28;20206;-73
2022/01/13 10:52:31;;;;;;;119.55;27.42;;;;;;;;;;5073038;28;20024;-73
2022/01/13 10:55:08;;;;;;;124.65;26.60;;;;;;;;;;5072740;28;20020;-73
2022/01/13 10:57:34;;;;;;;119.82;24.75;;;;;;;;;;5076695;28;20379;-73
2022/01/13 11:00:00;;;;;;;148.35;27.17;;;;;;;;;;5084508;28;20411;-73
2022/01/13 11:02:26;;;;;;;116.88;27.23;;;;;;;;;;5065197;28;20036;-73
2022/01/13 11:04:53;;;;;;;184.35;30.73;;;;;;;;;;5083555;28;20331;-73
2022/01/13 11:07:21;;;;;;;112.75;26.67;;;;;;;;;;5083091;28;20063;-73
2022/01/13 11:09:52;;;;;;;146.02;28.35;;;;;;;;;;5089251;28;20086;-73
2022/01/13 11:12:26;;;;;;;139.32;27.08;;;;;;;;;;5075343;28;20059;-73
2022/01/13 11:14:59;;;;;;;141.75;27.48;;;;;;;;;;5091104;28;20033;-74
2022/01/13 11:17:25;;;;;;;121.38;27.65;;;;;;;;;;5073156;28;20074;-74
2022/01/13 11:19:51;;;;;;;168.98;29.38;;;;;;;;;;5073244;28;20668;-74
2022/01/13 11:22:18;;;;;;;132.70;27.70;;;;;;;;;;5073109;28;20040;-73
2022/01/13 11:24:44;;;;;;;147.77;27.95;;;;;;;;;;5075637;28;20032;-73
2022/01/13 11:27:11;;;;;;;124.07;27.98;;;;;;;;;;5083546;28;20025;-74
2022/01/13 11:29:37;;;;;;;118.13;25.33;;;;;;;;;;5084513;28;20370;-75
2022/01/13 11:32:03;;;;;;;129.20;27.23;;;;;;;;;;5093245;28;20063;-74
2022/01/13 11:34:29;;;;;;;114.55;26.15;;;;;;;;;;5092879;28;20024;-73
2022/01/13 11:36:55;;;;;;;125.53;26.65;;;;;;;;;;5093166;28;20060;-74
2022/01/13 11:39:36;;;;;;;134.80;27.13;;;;;;;;;;5093048;28;20438;-73
2022/01/13 11:42:03;;;;;;;128.55;26.75;;;;;;;;;;5074750;28;20024;-73
2022/01/13 11:44:29;;;;;;;155.77;29.88;;;;;;;;;;5093117;28;20035;-79
2022/01/13 11:46:55;;;;;;;144.70;30.67;;;;;;;;;;5091337;28;20024;-77
2022/01/13 11:49:31;;;;;;;150.38;29.70;;;;;;;;;;5052845;28;20099;-77
2022/01/13 11:52:00;;;;;;;194.63;28.73;;;;;;;;;;5052687;28;20048;-76
2022/01/13 11:54:33;;;;;;;227.13;33.08;;;;;;;;;;5052499;28;20021;-77
2022/01/13 11:57:10;;;;;;;131.23;28.15;;;;;;;;;;5067462;28;20037;-76
2022/01/13 11:59:36;;;;;;;164.98;30.30;;;;;;;;;;5072064;28;20028;-77
2022/01/13 12:02:20;;;;;;;204.10;30.88;;;;;;;;;;5072701;28;20123;-76
2022/01/13 12:05:19;;;;;;;172.77;30.40;;;;;;;;;;5084185;28;20059;-76
2022/01/13 12:07:50;;;;;;;194.25;30.30;;;;;;;;;;5010549;28;20111;-77
2022/01/13 12:10:21;;;;;;;214.80;31.75;;;;;;;;;;5010613;28;20061;-77
2022/01/13 12:12:48;;;;;;;156.73;31.95;;;;;;;;;;5010330;28;20025;-76
2022/01/13 12:15:15;;;;;;;170.85;29.92;;;;;;;;;;5010193;28;20481;-76
2022/01/13 12:17:52;;;;;;;202.93;30.58;;;;;;;;;;5010008;28;20101;-78
2022/01/13 12:23:16;;;;;;;218.20;31.13;;;;;;;;;;5023344;28;20494;-74
2022/01/13 12:25:43;;;;;;;189.80;30.52;;;;;;;;;;5023640;28;20026;-74
2022/01/13 12:28:14;;;;;;;200.73;32.97;;;;;;;;;;5023875;28;20107;-74
2022/01/13 12:30:40;;;;;;;199.60;30.85;;;;;;;;;;5023700;28;20038;-74
2022/01/13 12:33:07;;;;;;;199.77;30.38;;;;;;;;;;5023322;28;20419;-74
2022/01/13 12:35:45;;;;;;;155.00;27.98;;;;;;;;;;5023869;28;20511;-74
2022/01/13 12:38:13;;;;;;;179.30;31.48;;;;;;;;;;5023995;28;20030;-73
2022/01/13 12:40:44;;;;;;;209.10;30.55;;;;;;;;;;5023794;28;20105;-74
2022/01/13 12:46:05;;;;;;;168.52;27.35;;;;;;;;;;5094113;28;20031;-73
2022/01/13 12:48:31;;;;;;;240.88;34.72;;;;;;;;;;5073827;28;20031;-74
2022/01/13 12:50:59;;;;;;;127.03;28.30;;;;;;;;;;5094238;28;20016;-74
2022/01/13 12:53:26;;;;;;;174.07;27.92;;;;;;;;;;5107825;28;20077;-74
2022/01/13 12:55:54;;;;;;;200.15;30.38;;;;;;;;;;5108312;28;20135;-74
2022/01/13 12:58:25;;;;;;;198.27;29.77;;;;;;;;;;5104461;28;20023;-77
2022/01/13 13:00:51;;;;;;;205.93;30.65;;;;;;;;;;5099086;28;20480;-74
2022/01/13 13:03:18;;;;;;;174.85;27.42;;;;;;;;;;5100746;28;20043;-75
2022/01/13 13:05:46;;;;;;;186.20;29.52;;;;;;;;;;5100441;28;20106;-74
2022/01/13 13:08:14;;;;;;;178.38;29.17;;;;;;;;;;5096097;28;20153;-75
2022/01/13 13:10:44;;;;;;;153.85;27.33;;;;;;;;;;5097097;28;20118;-74
2022/01/13 13:13:12;;;;;;;183.20;30.10;;;;;;;;;;5114478;28;20072;-78
2022/01/13 13:18:04;;;;;;;113.05;27.00;;;;;;;;;;5096398;28;20032;-77
2022/01/13 13:20:35;;;;;;;165.52;28.27;;;;;;;;;;5095743;28;20039;-77
2022/01/13 13:23:03;;;;;;;121.88;24.88;;;;;;;;;;5077905;28;20113;-78
2022/01/13 13:25:32;;;;;;;140.35;25.27;;;;;;;;;;5095912;28;20016;-78
2022/01/13 13:28:17;;;;;;;145.48;25.38;;;;;;;;;;5095687;28;20024;-78
2022/01/13 13:30:44;;;;;;;142.77;26.90;;;;;;;;;;5095985;28;20064;-78
2022/01/13 13:33:10;;;;;;;140.73;27.15;;;;;;;;;;5095822;28;20039;-78
2022/01/13 13:35:36;;;;;;;116.50;26.75;;;;;;;;;;5076974;28;20032;-78
2022/01/13 13:38:02;;;;;;;145.48;25.00;;;;;;;;;;5096543;28;20400;-78
2022/01/13 13:40:28;;;;;;;139.57;26.40;;;;;;;;;;5096238;28;20032;-79
2022/01/13 13:43:01;;;;;;;112.97;25.05;;;;;;;;;;5096102;28;20039;-79
2022/01/13 13:45:27;;;;;;;;;;;;;;;;;;5096569;28;20028;-78
2022/01/13 13:47:59;;;;;;;118.10;25.83;;;;;;;;;;5095530;28;19970;-77
2022/01/13 13:50:25;;;;;;;;;;;;;;;;;;5095607;28;20028;-76
2022/01/13 13:53:07;;;;;;;151.98;26.75;;;;;;;;;;5101899;28;20388;-76
2022/01/13 13:55:34;;;;;;;150.77;27.83;;;;;;;;;;5103119;28;20040;-76
2022/01/13 13:58:00;;;;;;;141.00;27.30;;;;;;;;;;5102977;28;20445;-76
2022/01/13 14:00:26;;;;;;;167.40;28.48;;;;;;;;;;5102874;28;20039;-76
2022/01/13 14:02:54;;;;;;;182.88;29.83;;;;;;;;;;5103937;28;20091;-76
2022/01/13 14:05:24;;;;;;;142.88;28.27;;;;;;;;;;5105930;28;20070;-76
2022/01/13 14:07:51;;;;;;;144.45;28.02;;;;;;;;;;5105349;28;20528;-76
2022/01/13 14:10:18;;;;;;;138.35;28.25;;;;;;;;;;5102757;28;20014;-76
2022/01/13 14:12:45;;;;;;;121.68;26.60;;;;;;;;;;5102874;28;20126;-76
2022/01/13 14:15:12;;;;;;;113.80;26.67;;;;;;;;;;5101923;28;20039;-76
2022/01/13 14:17:38;;;;;;;148.02;29.15;;;;;;;;;;5103635;28;20015;-76
2022/01/13 14:20:08;;;;;;;110.80;26.08;;;;;;;;;;5104907;28;20081;-77
2022/01/13 14:22:34;;;;;;;82.75;24.05;;;;;;;;;;5102328;28;20444;-76
2022/01/13 14:25:00;;;;;;;84.35;22.73;;;;;;;;;;5103983;28;20028;-77
2022/01/13 14:27:27;;;;;;;82.43;22.30;;;;;;;;;;5095492;28;20074;-79
2022/01/13 14:29:53;;;;;;;89.43;24.67;;;;;;;;;;5095311;28;20143;-79
2022/01/13 14:32:24;;;;;;;96.30;24.75;;;;;;;;;;5095554;28;20024;-79
2022/01/13 14:34:54;;;;;;;120.22;26.73;;;;;;;;;;5095582;28;20097;-80
2022/01/13 14:37:21;;;;;;;110.05;26.23;;;;;;;;;;5094483;28;20471;-77
2022/01/13 14:40:04;;;;;;;103.63;26.83;;;;;;;;;;5093859;28;20024;-76